Time;durP1;ratioP1;P1;durP2;ratioP2;P2;SDS_P1;SDS_P2;PMS_P1;PMS_P2;Temp;Humidity;BMP_temperature;BMP_pressure;BME280_temperature;BME280_humidity;BME280_pressure;Samples;Min_cycle;Max_cycle;Signal;HPM_P1;HPM_P2
2024/01/08 00:00:28;;;;;;;2.10;1.47;;;1.90;99.90;;;;;;5036963;28;20193;-72
2024/01/08 00:02:56;;;;;;;2.07;1.50;;;1.90;99.90;;;;;;5036553;28;20292;-71
2024/01/08 00:05:24;;;;;;;2.47;1.60;;;1.80;99.90;;;;;;5052438;28;20201;-71
2024/01/08 00:07:50;;;;;;;2.10;1.50;;;1.90;99.90;;;;;;5039303;28;20219;-71
2024/01/08 00:10:20;;;;;;;2.03;1.80;;;1.90;99.90;;;;;;5044624;28;20208;-70
2024/01/08 00:12:46;;;;;;;2.83;1.60;;;1.90;99.90;;;;;;5037523;28;20243;-72
2024/01/08 00:15:11;;;;;;;2.10;1.40;;;1.80;99.90;;;;;;5051302;28;20217;-71
2024/01/08 00:17:39;;;;;;;2.33;1.60;;;1.80;99.90;;;;;;5052944;28;20288;-72
2024/01/08 00:20:10;;;;;;;2.00;1.40;;;1.80;99.90;;;;;;5049829;28;20205;-69
2024/01/08 00:22:36;;;;;;;2.63;1.30;;;1.80;99.90;;;;;;5054513;28;20266;-70
2024/01/08 00:25:03;;;;;;;1.80;1.40;;;1.90;99.90;;;;;;5039112;28;20181;-71
2024/01/08 00:27:29;;;;;;;1.30;1.10;;;1.80;99.90;;;;;;5035506;28;20177;-72
2024/01/08 00:29:55;;;;;;;1.77;1.37;;;1.80;99.90;;;;;;5054531;28;20188;-71
2024/01/08 00:35:08;;;;;;;1.30;1.10;;;1.80;99.90;;;;;;5111304;27;20580;-70
2024/01/08 00:37:35;;;;;;;1.67;1.27;;;1.90;99.90;;;;;;5005817;28;20176;-71
2024/01/08 00:40:02;;;;;;;2.13;1.30;;;1.90;99.90;;;;;;5119472;27;20231;-69
2024/01/08 00:42:28;;;;;;;1.70;1.40;;;1.80;99.90;;;;;;5006664;28;20225;-71
2024/01/08 00:44:54;;;;;;;1.23;1.03;;;1.90;99.90;;;;;;5012157;28;20185;-71
2024/01/08 00:47:19;;;;;;;1.30;1.10;;;1.80;99.90;;;;;;5009509;28;20209;-71
2024/01/08 00:49:47;;;;;;;1.50;0.97;;;1.80;99.90;;;;;;4998462;28;20270;-72
2024/01/08 00:52:15;;;;;;;1.10;1.00;;;1.90;99.90;;;;;;5103320;27;20214;-71
2024/01/08 00:54:40;;;;;;;1.40;1.17;;;1.90;99.90;;;;;;4999997;28;20224;-70
2024/01/08 00:57:06;;;;;;;1.70;1.20;;;1.90;99.90;;;;;;4997571;28;20407;-71
2024/01/08 00:59:36;;;;;;;1.30;1.07;;;1.90;99.90;;;;;;5001426;28;20203;-72
2024/01/08 01:02:05;;;;;;;1.50;1.23;;;1.90;99.90;;;;;;5100831;27;20203;-70
2024/01/08 01:04:30;;;;;;;1.10;1.00;;;1.90;99.90;;;;;;5010307;28;20178;-69
2024/01/08 01:06:58;;;;;;;1.23;1.00;;;1.90;99.90;;;;;;4998594;28;20264;-72
2024/01/08 01:09:24;;;;;;;1.50;1.37;;;1.80;99.90;;;;;;5013803;28;20180;-72
2024/01/08 01:11:50;;;;;;;1.20;1.00;;;1.90;99.90;;;;;;5006931;28;20185;-73
2024/01/08 01:14:18;;;;;;;1.47;1.00;;;1.80;99.90;;;;;;5001090;28;20266;-73
2024/01/08 01:16:44;;;;;;;0.80;0.80;;;1.80;99.90;;;;;;4999464;28;20195;-73
2024/01/08 01:19:10;;;;;;;1.13;0.90;;;2.00;99.90;;;;;;4999522;28;20252;-70
2024/01/08 01:21:40;;;;;;;1.30;0.83;;;1.80;99.90;;;;;;5099239;27;20195;-70
2024/01/08 01:24:11;;;;;;;1.00;0.87;;;1.80;99.90;;;;;;5104827;28;20198;-71
2024/01/08 01:26:36;;;;;;;1.10;0.90;;;1.80;99.90;;;;;;5109417;28;20175;-70
2024/01/08 01:29:04;;;;;;;1.00;0.90;;;1.90;99.90;;;;;;5008994;28;20229;-71
2024/01/08 01:31:33;;;;;;;1.10;1.00;;;1.90;99.90;;;;;;5105083;27;20183;-73
2024/01/08 01:34:03;;;;;;;1.00;0.87;;;1.90;99.90;;;;;;4998246;28;20214;-69
2024/01/08 01:36:29;;;;;;;1.10;0.90;;;1.90;99.90;;;;;;5102832;27;20297;-71
2024/01/08 01:38:55;;;;;;;1.13;0.90;;;1.90;99.90;;;;;;5093226;28;20171;-70
2024/01/08 01:41:23;;;;;;;0.87;0.70;;;1.90;99.90;;;;;;5099270;28;20269;-72
2024/01/08 01:43:51;;;;;;;1.00;0.90;;;1.90;99.90;;;;;;5009561;28;20182;-69
2024/01/08 01:46:35;;;;;;;2.00;0.90;;;1.90;99.90;;;;;;5082650;27;20210;-70
2024/01/08 01:49:02;;;;;;;0.80;0.70;;;1.90;99.90;;;;;;5081415;27;20177;-72
2024/01/08 01:51:28;;;;;;;1.53;1.00;;;2.00;99.90;;;;;;4985863;28;20236;-70
2024/01/08 01:53:54;;;;;;;0.80;0.80;;;1.90;99.90;;;;;;4988138;28;20233;-72
2024/01/08 01:56:22;;;;;;;0.93;0.83;;;1.90;99.90;;;;;;4994795;28;20186;-72
2024/01/08 01:58:48;;;;;;;1.10;0.90;;;1.90;99.90;;;;;;4982407;28;20271;-70
2024/01/08 02:01:14;;;;;;;0.93;0.83;;;1.90;99.90;;;;;;5092331;27;20206;-72
2024/01/08 02:03:43;;;;;;;1.60;0.93;;;1.90;99.90;;;;;;4988805;28;20203;-69
2024/01/08 02:06:11;;;;;;;0.80;0.70;;;1.90;99.90;;;;;;5085809;27;20191;-71
2024/01/08 02:08:37;;;;;;;0.87;0.70;;;1.90;99.90;;;;;;4985427;28;20426;-71
2024/01/08 02:11:10;;;;;;;1.60;0.80;;;1.90;99.90;;;;;;4993143;28;20180;-71
2024/01/08 02:13:35;;;;;;;0.87;0.73;;;1.90;99.90;;;;;;5005254;28;20199;-71
2024/01/08 02:16:01;;;;;;;0.73;0.73;;;1.90;99.90;;;;;;4992258;28;20202;-71
2024/01/08 02:18:31;;;;;;;0.50;0.50;;;1.90;99.90;;;;;;5084630;27;20208;-71
2024/01/08 02:20:59;;;;;;;1.03;0.83;;;1.90;99.90;;;;;;5083919;27;20187;-70
2024/01/08 02:23:27;;;;;;;0.70;0.70;;;1.90;99.90;;;;;;5092291;27;20253;-71
2024/01/08 02:25:53;;;;;;;1.20;0.70;;;1.90;99.90;;;;;;5088353;27;20191;-68
2024/01/08 02:28:19;;;;;;;1.00;0.60;;;1.90;99.90;;;;;;5085411;27;20192;-71
2024/01/08 02:30:52;;;;;;;1.53;0.90;;;1.90;99.90;;;;;;4977258;28;20211;-70
2024/01/08 02:33:20;;;;;;;1.00;0.80;;;1.90;99.90;;;;;;5083851;27;20226;-71
2024/01/08 02:35:48;;;;;;;2.13;0.80;;;1.90;99.90;;;;;;4989223;28;20194;-71
2024/01/08 02:38:16;;;;;;;1.03;0.80;;;1.90;99.90;;;;;;4991381;28;20255;-70
2024/01/08 02:40:44;;;;;;;1.43;1.10;;;1.90;99.90;;;;;;4996559;28;20175;-72
2024/01/08 02:43:12;;;;;;;2.37;1.30;;;1.90;99.90;;;;;;4981934;28;20215;-73
2024/01/08 02:45:38;;;;;;;1.30;1.10;;;2.00;99.90;;;;;;5005564;28;20250;-72
2024/01/08 02:48:06;;;;;;;1.27;1.10;;;2.00;99.90;;;;;;5000543;28;20175;-72
2024/01/08 02:50:31;;;;;;;1.43;1.10;;;2.00;99.90;;;;;;4985856;28;20215;-72
2024/01/08 02:52:57;;;;;;;1.50;1.27;;;1.90;99.90;;;;;;4992035;28;20212;-71
2024/01/08 02:55:25;;;;;;;2.30;1.63;;;2.00;99.90;;;;;;4989391;28;20171;-72
2024/01/08 02:57:50;;;;;;;1.83;1.60;;;2.00;99.90;;;;;;4980926;28;20175;-71
2024/01/08 03:00:20;;;;;;;2.33;1.80;;;1.90;99.90;;;;;;4988791;28;20240;-72
2024/01/08 03:02:46;;;;;;;2.53;2.00;;;1.90;99.90;;;;;;5100192;27;20170;-71
2024/01/08 03:05:11;;;;;;;2.33;2.13;;;1.90;99.90;;;;;;5093986;27;20182;-72
2024/01/08 03:07:37;;;;;;;2.63;2.10;;;1.90;99.90;;;;;;4989445;28;20184;-71
2024/01/08 03:10:03;;;;;;;3.07;2.50;;;1.80;99.90;;;;;;4989538;28;20199;-73
2024/01/08 03:12:31;;;;;;;3.80;2.50;;;1.80;99.90;;;;;;4990161;28;20176;-72
2024/01/08 03:14:59;;;;;;;3.20;2.47;;;1.80;99.90;;;;;;4989183;28;20207;-72
2024/01/08 03:17:27;;;;;;;2.60;2.30;;;1.80;99.90;;;;;;5077112;28;20163;-69
2024/01/08 03:19:54;;;;;;;3.10;2.57;;;1.70;99.90;;;;;;4994283;28;20178;-71
2024/01/08 03:22:20;;;;;;;2.90;2.43;;;1.70;99.90;;;;;;5087436;27;20286;-71
2024/01/08 03:24:46;;;;;;;2.90;2.40;;;1.70;99.90;;;;;;4995433;28;20274;-72
2024/01/08 03:27:12;;;;;;;3.17;2.50;;;1.70;99.90;;;;;;4990329;28;20191;-69
2024/01/08 03:29:38;;;;;;;2.97;2.33;;;1.70;99.90;;;;;;4991791;28;20215;-69
2024/01/08 03:32:04;;;;;;;2.37;2.17;;;1.70;99.90;;;;;;4989573;28;20183;-71
2024/01/08 03:34:29;;;;;;;2.53;2.23;;;1.70;99.90;;;;;;4985453;28;20280;-70
2024/01/08 03:36:55;;;;;;;3.00;2.40;;;1.70;99.90;;;;;;5086787;27;20320;-71
2024/01/08 03:39:21;;;;;;;2.70;2.20;;;1.70;99.90;;;;;;5090161;27;20270;-71
2024/01/08 03:41:46;;;;;;;3.50;2.50;;;1.60;99.90;;;;;;5098683;27;20186;-71
2024/01/08 03:44:14;;;;;;;2.37;2.10;;;1.60;99.90;;;;;;5086155;27;20202;-72
2024/01/08 03:46:40;;;;;;;2.37;2.10;;;1.60;99.90;;;;;;4985976;28;20266;-70
2024/01/08 03:49:09;;;;;;;2.37;2.13;;;1.60;99.90;;;;;;4986820;28;20183;-70
2024/01/08 03:51:35;;;;;;;3.50;2.80;;;1.60;99.90;;;;;;4987047;28;20394;-72
2024/01/08 03:54:01;;;;;;;3.40;2.63;;;1.60;99.90;;;;;;5085733;27;20204;-72
2024/01/08 03:56:26;;;;;;;3.33;2.53;;;1.60;99.90;;;;;;4989600;28;20171;-73
2024/01/08 03:58:52;;;;;;;3.50;2.83;;;1.50;99.90;;;;;;4984809;28;20179;-71
2024/01/08 04:01:20;;;;;;;4.00;3.03;;;1.50;99.90;;;;;;5083248;28;20179;-70
2024/01/08 04:03:48;;;;;;;3.43;2.80;;;1.50;99.90;;;;;;5083428;27;20205;-72
2024/01/08 04:06:13;;;;;;;3.13;2.40;;;1.50;99.90;;;;;;5080756;28;20188;-72
2024/01/08 04:08:39;;;;;;;4.87;2.77;;;1.40;99.90;;;;;;5087059;27;20260;-72
2024/01/08 04:11:08;;;;;;;3.20;2.40;;;1.40;99.90;;;;;;5080566;28;20228;-70
2024/01/08 04:13:36;;;;;;;3.10;2.50;;;1.40;99.90;;;;;;4986272;28;20196;-70
2024/01/08 04:16:04;;;;;;;3.40;2.80;;;1.50;99.90;;;;;;4997594;28;20212;-70
2024/01/08 04:18:30;;;;;;;3.87;2.77;;;1.40;99.90;;;;;;5088625;27;20186;-70
2024/01/08 04:20:55;;;;;;;3.83;2.90;;;1.30;99.90;;;;;;4973427;28;20180;-72
2024/01/08 04:23:21;;;;;;;3.47;2.80;;;1.30;99.90;;;;;;4977339;28;20176;-72
2024/01/08 04:25:46;;;;;;;3.77;2.73;;;1.30;99.90;;;;;;5080619;28;20203;-71
2024/01/08 04:28:12;;;;;;;3.40;2.37;;;1.30;99.90;;;;;;4981579;28;20184;-73
2024/01/08 04:30:40;;;;;;;4.67;3.90;;;1.30;99.90;;;;;;4985338;28;20204;-71
2024/01/08 04:33:05;;;;;;;4.67;3.60;;;1.30;99.90;;;;;;4993300;28;20232;-71
2024/01/08 04:35:33;;;;;;;4.30;3.50;;;1.30;99.90;;;;;;4983190;28;20180;-71
2024/01/08 04:37:59;;;;;;;4.57;3.13;;;1.30;99.90;;;;;;5086515;28;20188;-70
2024/01/08 04:40:24;;;;;;;4.37;3.27;;;1.30;99.90;;;;;;4997974;28;20201;-71
2024/01/08 04:42:50;;;;;;;4.80;3.50;;;1.30;99.90;;;;;;4977921;28;20262;-70
2024/01/08 04:45:15;;;;;;;3.60;3.10;;;1.30;99.90;;;;;;4988579;28;20181;-70
2024/01/08 04:47:43;;;;;;;3.87;3.27;;;1.20;99.90;;;;;;4998973;28;20176;-71
2024/01/08 04:50:09;;;;;;;3.87;2.97;;;1.30;99.90;;;;;;5095759;28;20187;-70
2024/01/08 04:52:40;;;;;;;4.63;3.30;;;1.30;99.90;;;;;;5002499;28;20199;-71
2024/01/08 04:55:05;;;;;;;5.70;3.80;;;1.20;99.90;;;;;;5082951;28;20199;-68
2024/01/08 04:57:33;;;;;;;6.37;4.10;;;1.20;99.90;;;;;;5082106;28;20203;-70
2024/01/08 05:00:02;;;;;;;5.10;3.83;;;1.20;99.90;;;;;;5080122;28;20200;-71
2024/01/08 05:02:28;;;;;;;4.07;3.23;;;1.20;99.90;;;;;;5087608;28;20211;-70
2024/01/08 05:04:56;;;;;;;4.17;3.47;;;1.20;99.90;;;;;;5084833;28;20278;-70
2024/01/08 05:07:22;;;;;;;5.17;3.53;;;1.20;99.90;;;;;;5003380;28;20261;-71
2024/01/08 05:09:47;;;;;;;3.90;3.13;;;1.10;99.90;;;;;;5077772;28;20183;-70
2024/01/08 05:12:13;;;;;;;4.30;3.30;;;1.10;99.90;;;;;;4982529;28;20180;-70
2024/01/08 05:14:38;;;;;;;3.63;3.23;;;1.20;99.90;;;;;;4974959;28;20265;-71
2024/01/08 05:17:04;;;;;;;4.50;3.50;;;1.20;99.90;;;;;;4987472;28;20181;-71
2024/01/08 05:19:32;;;;;;;3.87;2.90;;;1.10;99.90;;;;;;5088900;27;20263;-70
2024/01/08 05:21:57;;;;;;;3.87;2.90;;;1.20;99.90;;;;;;4987540;28;20180;-71
2024/01/08 05:24:26;;;;;;;4.23;3.17;;;1.20;99.90;;;;;;5081237;28;20183;-72
2024/01/08 05:26:53;;;;;;;5.37;4.03;;;1.10;99.90;;;;;;5083534;27;20184;-71
2024/01/08 05:29:19;;;;;;;4.10;3.50;;;1.20;99.90;;;;;;4985247;28;20184;-71
2024/01/08 05:31:45;;;;;;;4.50;3.33;;;1.20;99.90;;;;;;4990563;28;21682;-72
2024/01/08 05:34:10;;;;;;;4.20;3.67;;;1.20;99.90;;;;;;5084013;28;20204;-69
2024/01/08 05:36:40;;;;;;;4.67;3.60;;;1.20;99.90;;;;;;4987339;28;20182;-71
2024/01/08 05:39:06;;;;;;;4.80;3.60;;;1.20;99.90;;;;;;5092372;27;20257;-70
2024/01/08 05:41:31;;;;;;;4.90;3.70;;;1.20;99.90;;;;;;4979625;28;20176;-71
2024/01/08 05:43:57;;;;;;;5.23;3.43;;;1.20;99.90;;;;;;5093194;27;20180;-72
2024/01/08 05:46:25;;;;;;;6.50;4.60;;;1.20;99.90;;;;;;5089900;27;20252;-71
2024/01/08 05:48:50;;;;;;;5.50;4.20;;;1.20;99.90;;;;;;4991575;28;20187;-71
2024/01/08 05:51:17;;;;;;;4.90;3.87;;;1.10;99.90;;;;;;4995794;28;20190;-70
2024/01/08 05:53:43;;;;;;;4.60;3.70;;;1.10;99.90;;;;;;5098612;27;20204;-70
2024/01/08 05:56:09;;;;;;;5.13;3.90;;;1.10;99.90;;;;;;4993831;28;20274;-72
2024/01/08 05:58:36;;;;;;;5.30;4.03;;;1.10;99.90;;;;;;4994963;28;20198;-72
2024/01/08 06:01:04;;;;;;;4.80;3.30;;;1.10;99.90;;;;;;5087440;27;20579;-71
2024/01/08 06:03:32;;;;;;;5.23;3.90;;;1.00;99.90;;;;;;5087023;27;20184;-71
2024/01/08 06:05:58;;;;;;;4.97;3.70;;;1.00;99.90;;;;;;5088300;27;20306;-71
2024/01/08 06:08:26;;;;;;;4.40;3.77;;;1.00;99.90;;;;;;4986514;28;20330;-70
2024/01/08 06:10:56;;;;;;;4.63;3.87;;;1.00;99.90;;;;;;5002936;28;20188;-70
2024/01/08 06:13:24;;;;;;;5.43;4.30;;;1.00;99.90;;;;;;4990404;28;20285;-71
2024/01/08 06:15:52;;;;;;;6.33;4.77;;;0.90;99.90;;;;;;5097051;27;20183;-70
2024/01/08 06:18:17;;;;;;;7.20;4.40;;;0.90;99.90;;;;;;4994529;28;20183;-71
2024/01/08 06:20:46;;;;;;;6.40;4.13;;;0.80;99.90;;;;;;5080121;27;20183;-70
2024/01/08 06:23:13;;;;;;;6.67;4.30;;;0.80;99.90;;;;;;5005318;28;20179;-70
2024/01/08 06:25:39;;;;;;;5.53;4.50;;;0.80;99.90;;;;;;5084285;27;20199;-70
2024/01/08 06:28:05;;;;;;;5.10;3.87;;;0.80;99.90;;;;;;4979323;28;20235;-71
2024/01/08 06:30:31;;;;;;;6.87;4.50;;;0.70;99.90;;;;;;4992240;28;20175;-71
2024/01/08 06:32:57;;;;;;;5.30;4.13;;;0.70;99.90;;;;;;4987802;28;20188;-71
2024/01/08 06:35:25;;;;;;;5.77;3.90;;;0.70;99.90;;;;;;5016024;28;20241;-72
2024/01/08 06:37:51;;;;;;;5.13;3.93;;;0.70;99.90;;;;;;5075351;28;20180;-71
2024/01/08 06:40:16;;;;;;;5.53;4.23;;;0.70;99.90;;;;;;4977220;28;20248;-72
2024/01/08 06:42:44;;;;;;;4.90;4.10;;;0.70;99.90;;;;;;5089820;28;20197;-70
2024/01/08 06:45:12;;;;;;;5.53;4.10;;;0.70;99.90;;;;;;5035438;28;20210;-70
2024/01/08 06:47:38;;;;;;;5.57;4.10;;;0.80;99.90;;;;;;4993223;28;20175;-71
2024/01/08 06:50:04;;;;;;;5.37;4.13;;;0.70;99.90;;;;;;4988373;28;20220;-71
2024/01/08 06:52:30;;;;;;;5.73;4.20;;;0.70;99.90;;;;;;4985451;28;20243;-71
2024/01/08 06:54:56;;;;;;;6.23;4.40;;;0.70;99.90;;;;;;5010759;28;20295;-71
2024/01/08 06:57:24;;;;;;;5.50;4.17;;;0.70;99.90;;;;;;4982138;28;20189;-72
2024/01/08 06:59:52;;;;;;;5.90;4.23;;;0.80;99.90;;;;;;5018597;28;20176;-70
2024/01/08 07:02:20;;;;;;;5.30;4.33;;;0.80;99.90;;;;;;4974852;28;20176;-67
2024/01/08 07:04:46;;;;;;;4.77;4.03;;;0.80;99.90;;;;;;4983122;28;20199;-67
2024/01/08 07:07:13;;;;;;;4.50;3.47;;;0.80;99.90;;;;;;4991051;28;20175;-67
2024/01/08 07:09:39;;;;;;;5.20;4.23;;;0.80;99.90;;;;;;4993135;28;20175;-67
2024/01/08 07:12:08;;;;;;;4.90;4.20;;;0.80;99.90;;;;;;4977873;28;20203;-67
2024/01/08 07:14:45;;;;;;;5.47;4.23;;;0.80;99.90;;;;;;4973149;28;20208;-71
2024/01/08 07:17:13;;;;;;;5.20;4.10;;;0.90;99.90;;;;;;5087926;28;20191;-70
2024/01/08 07:19:39;;;;;;;4.83;4.20;;;0.90;99.90;;;;;;4975638;28;20176;-70
2024/01/08 07:22:04;;;;;;;4.93;3.97;;;0.90;99.90;;;;;;4973362;28;20180;-69
2024/01/08 07:24:30;;;;;;;4.70;3.90;;;0.90;99.90;;;;;;4983923;28;20211;-68
2024/01/08 07:26:57;;;;;;;4.90;3.87;;;0.90;99.90;;;;;;4989262;28;20220;-72
2024/01/08 07:29:22;;;;;;;5.30;3.67;;;0.90;99.90;;;;;;4987304;28;20179;-71
2024/01/08 07:31:50;;;;;;;5.07;4.00;;;0.90;99.90;;;;;;4982973;28;20386;-72
2024/01/08 07:34:16;;;;;;;4.73;4.10;;;0.90;99.90;;;;;;4986849;28;20345;-72
2024/01/08 07:36:44;;;;;;;5.87;4.03;;;0.90;99.90;;;;;;4973099;28;20274;-68
2024/01/08 07:39:14;;;;;;;4.70;3.80;;;0.90;99.90;;;;;;4991382;28;20183;-71
2024/01/08 07:41:40;;;;;;;4.50;3.50;;;0.90;99.90;;;;;;4992820;28;20195;-71
2024/01/08 07:44:06;;;;;;;4.47;3.57;;;0.90;99.90;;;;;;4989000;28;20203;-72
2024/01/08 07:46:32;;;;;;;4.40;3.60;;;1.00;99.90;;;;;;4973395;28;20263;-72
2024/01/08 07:48:58;;;;;;;4.50;3.50;;;1.00;99.90;;;;;;5048362;28;20282;-72
2024/01/08 07:51:26;;;;;;;3.67;3.20;;;1.00;99.90;;;;;;5037035;28;20203;-72
2024/01/08 07:53:55;;;;;;;3.57;2.97;;;1.00;99.90;;;;;;5096873;27;20206;-71
2024/01/08 07:56:27;;;;;;;3.83;2.97;;;1.00;99.90;;;;;;5030800;28;20233;-70
2024/01/08 07:58:57;;;;;;;4.10;3.13;;;1.00;99.90;;;;;;5007465;28;20176;-68
2024/01/08 08:01:27;;;;;;;4.20;3.33;;;1.00;99.90;;;;;;4995233;28;20179;-72
2024/01/08 08:03:53;;;;;;;3.93;3.20;;;1.10;99.90;;;;;;4991737;28;20434;-71
2024/01/08 08:06:26;;;;;;;4.47;3.30;;;1.10;99.90;;;;;;4999567;28;20225;-73
2024/01/08 08:08:54;;;;;;;4.13;3.47;;;1.10;99.90;;;;;;5094618;28;20190;-74
2024/01/08 08:11:27;;;;;;;3.80;2.83;;;1.10;99.90;;;;;;5094121;28;20196;-72
2024/01/08 08:13:53;;;;;;;4.03;3.17;;;1.10;99.90;;;;;;5094280;28;20219;-72
2024/01/08 08:16:18;;;;;;;4.10;2.90;;;1.20;99.90;;;;;;5073544;28;20360;-72
2024/01/08 08:18:45;;;;;;;3.50;3.00;;;1.20;99.90;;;;;;5114589;27;20198;-70
2024/01/08 08:21:10;;;;;;;4.50;3.17;;;1.20;99.90;;;;;;5108354;27;20191;-72
2024/01/08 08:23:38;;;;;;;3.20;2.67;;;1.20;99.90;;;;;;4982951;28;20183;-72
2024/01/08 08:26:06;;;;;;;3.10;2.70;;;1.30;99.90;;;;;;5077041;28;20184;-71
2024/01/08 08:28:32;;;;;;;3.53;2.93;;;1.30;99.90;;;;;;4991978;28;20183;-69
2024/01/08 08:30:58;;;;;;;3.23;2.60;;;1.30;99.90;;;;;;4982642;28;20183;-70
2024/01/08 08:33:23;;;;;;;3.30;2.70;;;1.30;99.90;;;;;;4987864;28;20207;-72
2024/01/08 08:35:51;;;;;;;3.70;2.87;;;1.40;99.90;;;;;;5046561;28;20191;-72
2024/01/08 08:38:17;;;;;;;3.23;2.70;;;1.40;99.90;;;;;;5095822;28;20183;-72
2024/01/08 08:40:43;;;;;;;3.03;2.60;;;1.40;99.90;;;;;;4991666;28;20190;-71
2024/01/08 08:43:09;;;;;;;3.33;2.60;;;1.40;99.90;;;;;;4992845;28;20187;-70
2024/01/08 08:45:35;;;;;;;2.87;2.57;;;1.50;99.90;;;;;;4987715;28;20179;-74
2024/01/08 08:48:03;;;;;;;3.37;2.40;;;1.50;99.90;;;;;;4972240;28;20186;-70
2024/01/08 08:50:28;;;;;;;3.17;2.50;;;1.50;99.90;;;;;;5090684;28;20183;-70
2024/01/08 08:52:54;;;;;;;3.43;2.70;;;1.50;99.90;;;;;;4988224;28;20188;-73
2024/01/08 08:55:20;;;;;;;2.70;2.30;;;1.60;99.90;;;;;;4983583;28;20242;-70
2024/01/08 08:57:48;;;;;;;2.77;2.43;;;1.60;99.90;;;;;;4985338;28;20293;-71
2024/01/08 09:00:14;;;;;;;2.90;2.43;;;1.60;99.90;;;;;;4987981;28;20270;-69
2024/01/08 09:02:42;;;;;;;3.07;2.43;;;1.60;99.90;;;;;;4982307;28;20222;-72
2024/01/08 09:05:08;;;;;;;2.40;2.10;;;1.60;99.90;;;;;;5038019;28;20184;-72
2024/01/08 09:07:33;;;;;;;2.73;2.20;;;1.60;99.90;;;;;;4978370;28;20260;-71
2024/01/08 09:10:00;;;;;;;3.20;2.70;;;1.70;99.90;;;;;;4998562;28;20190;-71
2024/01/08 09:12:28;;;;;;;2.93;2.33;;;1.70;99.90;;;;;;5118050;27;20289;-73
2024/01/08 09:14:54;;;;;;;3.00;2.50;;;1.70;99.90;;;;;;5077539;28;20249;-71
2024/01/08 09:17:21;;;;;;;3.07;2.47;;;1.80;99.90;;;;;;4976895;28;20231;-73
2024/01/08 09:19:52;;;;;;;2.80;2.17;;;1.70;99.90;;;;;;4975469;28;20200;-71
2024/01/08 09:22:17;;;;;;;3.37;2.37;;;1.80;99.90;;;;;;4989194;28;20183;-72
2024/01/08 09:24:43;;;;;;;2.83;2.20;;;1.80;99.90;;;;;;4975566;28;20192;-72
2024/01/08 09:27:11;;;;;;;4.17;2.60;;;1.80;99.90;;;;;;4974671;28;20208;-73
2024/01/08 09:29:36;;;;;;;3.83;2.87;;;1.80;99.90;;;;;;4977830;28;20175;-72
2024/01/08 09:32:02;;;;;;;2.87;2.30;;;1.90;99.90;;;;;;4994357;28;20253;-73
2024/01/08 09:34:27;;;;;;;3.63;2.33;;;1.90;99.90;;;;;;4990692;28;20200;-71
2024/01/08 09:36:55;;;;;;;2.60;2.30;;;1.90;99.90;;;;;;4975286;28;20187;-71
2024/01/08 09:39:23;;;;;;;3.37;2.43;;;2.00;99.90;;;;;;4975841;28;20179;-68
2024/01/08 09:41:51;;;;;;;2.93;2.20;;;2.00;99.90;;;;;;4974700;28;20203;-71
2024/01/08 09:44:19;;;;;;;2.53;2.30;;;2.00;99.90;;;;;;4975255;28;20233;-72
2024/01/08 09:46:50;;;;;;;2.87;2.47;;;2.00;99.90;;;;;;4990597;28;20225;-68
2024/01/08 09:49:19;;;;;;;2.77;2.10;;;2.00;99.90;;;;;;5096966;28;20221;-71
2024/01/08 09:51:48;;;;;;;4.30;2.10;;;2.00;99.90;;;;;;5097188;28;20187;-72
2024/01/08 09:54:18;;;;;;;3.00;2.20;;;2.00;99.90;;;;;;5076847;28;20227;-72
2024/01/08 09:56:44;;;;;;;2.87;2.37;;;2.00;99.90;;;;;;4974849;28;20188;-72
2024/01/08 09:59:11;;;;;;;2.50;2.03;;;2.00;99.90;;;;;;4974767;28;20321;-72
2024/01/08 10:01:41;;;;;;;2.57;2.07;;;2.00;99.90;;;;;;4974349;28;20172;-72
2024/01/08 10:04:11;;;;;;;2.33;2.07;;;2.00;99.90;;;;;;4992870;28;20199;-72
2024/01/08 10:06:39;;;;;;;2.47;2.10;;;2.10;99.90;;;;;;4993659;28;20268;-70
2024/01/08 10:09:07;;;;;;;2.47;2.20;;;2.00;99.90;;;;;;5097025;28;20179;-72
2024/01/08 10:11:37;;;;;;;2.33;2.10;;;2.00;99.90;;;;;;4974208;28;20208;-73
2024/01/08 10:14:02;;;;;;;2.43;2.00;;;2.00;99.90;;;;;;4981088;28;20196;-72
2024/01/08 10:16:33;;;;;;;2.10;1.83;;;2.00;99.90;;;;;;5043532;28;20184;-69
2024/01/08 10:18:59;;;;;;;2.73;2.20;;;2.00;99.90;;;;;;5096881;28;20286;-71
2024/01/08 10:21:25;;;;;;;2.33;2.00;;;2.00;99.90;;;;;;4993744;28;20214;-72
2024/01/08 10:24:09;;;;;;;2.70;2.20;;;2.00;99.90;;;;;;4993315;28;20199;-72
2024/01/08 10:26:40;;;;;;;3.20;2.43;;;2.00;99.90;;;;;;5096170;28;20264;-68
2024/01/08 10:29:15;;;;;;;2.43;2.13;;;2.10;99.90;;;;;;5109932;28;20445;-71
2024/01/08 10:31:41;;;;;;;3.70;1.97;;;2.00;99.90;;;;;;5067181;28;20231;-73
2024/01/08 10:34:07;;;;;;;1.97;1.73;;;2.00;99.90;;;;;;5093320;28;20215;-71
2024/01/08 10:36:35;;;;;;;2.93;2.30;;;2.00;99.90;;;;;;4974959;28;20192;-73
2024/01/08 10:39:05;;;;;;;2.80;2.07;;;2.00;99.90;;;;;;5105670;28;20180;-73
2024/01/08 10:41:31;;;;;;;2.40;1.90;;;2.00;99.90;;;;;;5096207;28;20279;-72
2024/01/08 10:43:59;;;;;;;2.80;2.10;;;2.00;99.90;;;;;;5028108;28;20369;-70
2024/01/08 10:46:32;;;;;;;2.30;2.00;;;1.90;99.90;;;;;;5112735;28;20180;-72
2024/01/08 10:49:00;;;;;;;2.73;2.20;;;2.00;99.90;;;;;;5092978;28;20203;-70
2024/01/08 10:51:25;;;;;;;2.13;1.90;;;2.00;99.90;;;;;;4974532;28;20187;-68
2024/01/08 10:53:54;;;;;;;2.33;2.03;;;2.10;99.90;;;;;;4989693;28;20298;-72
2024/01/08 10:56:28;;;;;;;3.03;2.27;;;2.30;99.90;;;;;;5094809;27;20543;-72
2024/01/08 10:59:09;;;;;;;2.60;2.03;;;2.40;99.90;;;;;;5116106;27;20170;-72
2024/01/08 11:01:36;;;;;;;2.40;2.10;;;2.60;99.90;;;;;;4992904;28;20192;-72
2024/01/08 11:04:09;;;;;;;2.47;2.27;;;2.80;99.90;;;;;;4992276;28;20229;-72
2024/01/08 11:06:38;;;;;;;3.90;2.30;;;3.00;99.90;;;;;;5077031;28;20267;-72
2024/01/08 11:09:04;;;;;;;2.20;1.90;;;3.20;99.90;;;;;;4995610;28;20183;-71
2024/01/08 11:11:33;;;;;;;2.97;2.40;;;3.30;99.90;;;;;;4979322;28;20208;-72
2024/01/08 11:13:59;;;;;;;2.43;2.10;;;3.40;99.90;;;;;;5075114;28;20560;-72
2024/01/08 11:16:32;;;;;;;3.00;2.40;;;3.50;99.90;;;;;;4973217;28;20322;-70
2024/01/08 11:19:16;;;;;;;3.40;2.27;;;3.50;99.90;;;;;;4986737;28;20200;-69
2024/01/08 11:21:45;;;;;;;2.60;2.20;;;3.60;99.90;;;;;;4990740;28;20195;-72
2024/01/08 11:24:10;;;;;;;2.57;2.30;;;3.80;99.90;;;;;;4978306;28;20191;-72
2024/01/08 11:26:48;;;;;;;3.23;2.60;;;3.90;99.90;;;;;;4991655;28;20199;-71
2024/01/08 11:29:16;;;;;;;3.87;2.47;;;4.00;99.90;;;;;;4975109;28;20520;-70
2024/01/08 11:31:55;;;;;;;3.23;2.63;;;4.10;99.90;;;;;;4977020;28;20176;-72
2024/01/08 11:34:50;;;;;;;4.07;2.70;;;4.20;99.90;;;;;;4973336;28;20216;-70
2024/01/08 11:38:00;;;;;;;2.83;2.53;;;4.30;99.90;;;;;;5079194;28;20266;-71
2024/01/08 11:40:27;;;;;;;2.47;2.27;;;4.50;99.90;;;;;;5000796;28;21607;-69
2024/01/08 11:42:53;;;;;;;3.53;2.70;;;4.70;99.90;;;;;;4987459;28;20178;-70
2024/01/08 11:45:20;;;;;;;3.20;2.50;;;4.90;99.90;;;;;;4976366;28;20179;-71
2024/01/08 11:47:49;;;;;;;2.67;2.47;;;5.20;99.90;;;;;;4982552;28;20209;-71
2024/01/08 11:50:18;;;;;;;3.13;2.43;;;5.40;99.90;;;;;;5108676;28;20183;-70
2024/01/08 11:52:44;;;;;;;2.60;1.93;;;5.70;99.90;;;;;;5094546;28;20172;-72
2024/01/08 11:55:12;;;;;;;2.90;2.20;;;6.00;99.90;;;;;;5023818;28;20214;-71
2024/01/08 11:57:42;;;;;;;3.10;2.30;;;6.10;99.90;;;;;;4992127;28;20225;-72
2024/01/08 12:00:13;;;;;;;2.40;2.10;;;6.20;99.90;;;;;;5094592;28;20186;-73
2024/01/08 12:02:41;;;;;;;3.07;2.50;;;6.20;99.90;;;;;;4991861;28;20179;-72
2024/01/08 12:05:08;;;;;;;2.30;1.90;;;6.30;99.90;;;;;;5081926;28;20210;-73
2024/01/08 12:07:37;;;;;;;2.67;2.40;;;6.50;99.90;;;;;;5075249;28;20194;-71
2024/01/08 12:10:06;;;;;;;2.83;2.20;;;6.60;99.90;;;;;;4985147;28;20175;-71
2024/01/08 12:12:31;;;;;;;3.10;2.20;;;6.60;99.90;;;;;;5094695;28;20179;-73
2024/01/08 12:14:57;;;;;;;2.17;1.83;;;6.70;99.90;;;;;;4992856;28;20199;-70
2024/01/08 12:17:25;;;;;;;3.10;2.10;;;6.80;99.90;;;;;;5114824;27;20193;-73
2024/01/08 12:19:55;;;;;;;3.63;2.13;;;6.70;99.90;;;;;;5103927;27;20174;-73
2024/01/08 12:22:26;;;;;;;2.70;2.10;;;6.70;99.90;;;;;;5073917;28;20183;-74
2024/01/08 12:24:53;;;;;;;2.43;2.23;;;6.60;99.90;;;;;;5092689;28;20183;-72
2024/01/08 12:27:25;;;;;;;3.57;2.27;;;6.60;99.90;;;;;;5095600;28;20175;-73
2024/01/08 12:29:54;;;;;;;2.90;2.30;;;6.60;99.90;;;;;;5092722;28;20171;-72
2024/01/08 12:32:25;;;;;;;2.80;2.30;;;6.60;99.90;;;;;;4974177;28;20262;-72
2024/01/08 12:34:51;;;;;;;2.70;2.10;;;6.70;99.90;;;;;;5093788;28;20268;-72
2024/01/08 12:37:18;;;;;;;2.57;2.00;;;6.70;99.90;;;;;;4991282;28;20175;-73
2024/01/08 12:39:47;;;;;;;3.67;2.60;;;6.80;99.90;;;;;;5078788;28;20174;-73
2024/01/08 12:42:16;;;;;;;2.80;2.10;;;6.80;99.90;;;;;;4972328;28;20172;-73
2024/01/08 12:44:47;;;;;;;3.37;2.20;;;6.80;99.90;;;;;;4980290;28;20222;-73
2024/01/08 12:47:13;;;;;;;2.77;2.20;;;6.70;99.90;;;;;;4973365;28;20239;-73
2024/01/08 12:49:41;;;;;;;2.93;2.30;;;6.70;99.90;;;;;;4988165;28;20282;-73
2024/01/08 12:52:07;;;;;;;2.63;2.00;;;6.70;99.90;;;;;;4990974;28;20181;-73
2024/01/08 12:54:40;;;;;;;2.80;2.10;;;6.60;99.90;;;;;;4990482;28;20218;-73
2024/01/08 12:57:10;;;;;;;2.57;2.17;;;6.50;99.90;;;;;;5092477;28;20194;-73
2024/01/08 12:59:36;;;;;;;2.87;2.10;;;6.40;99.90;;;;;;4973047;28;20188;-71
2024/01/08 13:02:02;;;;;;;2.30;1.97;;;6.30;99.90;;;;;;4978595;28;20194;-75